sensor_id;sensor_type;location;lat;lon;timestamp;pressure;altitude;pressure_sealevel;temperature;humidity
16451;BME280;12243;42.708;23.310;2023-01-30T00:01:47;95305.25;;;-0.09;95.24
16451;BME280;12243;42.708;23.310;2023-01-30T00:04:14;95291.00;;;-0.16;95.77
16451;BME280;12243;42.708;23.310;2023-01-30T00:06:41;95309.03;;;-0.19;95.73
16451;BME280;12243;42.708;23.310;2023-01-30T00:09:11;95293.91;;;-0.25;96.31
16451;BME280;12243;42.708;23.310;2023-01-30T00:11:40;95292.97;;;-0.22;96.72
16451;BME280;12243;42.708;23.310;2023-01-30T00:14:07;95297.84;;;-0.16;96.63
16451;BME280;12243;42.708;23.310;2023-01-30T00:16:34;95300.00;;;-0.06;96.58
16451;BME280;12243;42.708;23.310;2023-01-30T00:19:01;95308.00;;;-0.13;96.47
16451;BME280;12243;42.708;23.310;2023-01-30T00:21:28;95311.66;;;-0.20;96.56
16451;BME280;12243;42.708;23.310;2023-01-30T00:23:54;95299.13;;;-0.28;97.51
16451;BME280;12243;42.708;23.310;2023-01-30T00:26:21;95301.66;;;-0.27;96.86
16451;BME280;12243;42.708;23.310;2023-01-30T00:28:50;95302.47;;;-0.26;96.82
16451;BME280;12243;42.708;23.310;2023-01-30T00:31:17;95303.41;;;-0.29;97.11
16451;BME280;12243;42.708;23.310;2023-01-30T00:33:44;95299.59;;;-0.40;97.02
16451;BME280;12243;42.708;23.310;2023-01-30T00:36:12;95298.13;;;-0.47;97.45
16451;BME280;12243;42.708;23.310;2023-01-30T00:38:39;95286.34;;;-0.52;97.89
16451;BME280;12243;42.708;23.310;2023-01-30T00:41:06;95285.47;;;-0.51;98.34
16451;BME280;12243;42.708;23.310;2023-01-30T00:43:35;95281.13;;;-0.49;97.65
16451;BME280;12243;42.708;23.310;2023-01-30T00:46:24;95282.56;;;-0.41;98.03
16451;BME280;12243;42.708;23.310;2023-01-30T00:49:10;95279.91;;;-0.38;97.39
16451;BME280;12243;42.708;23.310;2023-01-30T00:51:36;95276.56;;;-0.40;97.74
16451;BME280;12243;42.708;23.310;2023-01-30T00:54:03;95280.13;;;-0.44;97.86
16451;BME280;12243;42.708;23.310;2023-01-30T00:56:30;95277.47;;;-0.41;97.49
16451;BME280;12243;42.708;23.310;2023-01-30T00:58:57;95283.69;;;-0.49;97.73
16451;BME280;12243;42.708;23.310;2023-01-30T01:01:26;95273.88;;;-0.61;98.14
16451;BME280;12243;42.708;23.310;2023-01-30T01:03:53;95280.00;;;-0.65;98.19
16451;BME280;12243;42.708;23.310;2023-01-30T01:06:20;95280.00;;;-0.65;99.16
16451;BME280;12243;42.708;23.310;2023-01-30T01:08:47;95276.75;;;-0.70;99.07
16451;BME280;12243;42.708;23.310;2023-01-30T01:11:14;95280.28;;;-0.73;99.70
16451;BME280;12243;42.708;23.310;2023-01-30T01:13:50;95282.94;;;-0.76;99.40
16451;BME280;12243;42.708;23.310;2023-01-30T01:16:17;95264.31;;;-0.79;99.67
16451;BME280;12243;42.708;23.310;2023-01-30T01:18:46;95273.66;;;-0.78;99.52
16451;BME280;12243;42.708;23.310;2023-01-30T01:21:13;95272.09;;;-0.82;99.84
16451;BME280;12243;42.708;23.310;2023-01-30T01:23:40;95262.38;;;-0.73;99.25
16451;BME280;12243;42.708;23.310;2023-01-30T01:26:07;95264.88;;;-0.71;99.77
16451;BME280;12243;42.708;23.310;2023-01-30T01:28:40;95259.97;;;-0.77;99.56
16451;BME280;12243;42.708;23.310;2023-01-30T01:31:10;95259.88;;;-0.74;99.84
16451;BME280;12243;42.708;23.310;2023-01-30T01:33:38;95250.72;;;-0.80;99.67
16451;BME280;12243;42.708;23.310;2023-01-30T01:36:07;95255.53;;;-0.72;99.62
16451;BME280;12243;42.708;23.310;2023-01-30T01:38:34;95255.66;;;-0.75;99.22
16451;BME280;12243;42.708;23.310;2023-01-30T01:41:01;95265.09;;;-0.77;99.60
16451;BME280;12243;42.708;23.310;2023-01-30T01:43:28;95266.53;;;-0.70;99.17
16451;BME280;12243;42.708;23.310;2023-01-30T01:45:59;95261.31;;;-0.67;99.35
16451;BME280;12243;42.708;23.310;2023-01-30T01:48:30;95257.00;;;-0.65;99.14
16451;BME280;12243;42.708;23.310;2023-01-30T01:51:02;95268.84;;;-0.62;99.35
16451;BME280;12243;42.708;23.310;2023-01-30T01:53:34;95262.22;;;-0.68;98.77
16451;BME280;12243;42.708;23.310;2023-01-30T01:56:03;95259.53;;;-0.65;99.03
16451;BME280;12243;42.708;23.310;2023-01-30T01:58:34;95255.31;;;-0.66;98.71
16451;BME280;12243;42.708;23.310;2023-01-30T02:01:03;95254.53;;;-0.68;99.35
16451;BME280;12243;42.708;23.310;2023-01-30T02:03:34;95260.66;;;-0.72;99.34
16451;BME280;12243;42.708;23.310;2023-01-30T02:06:03;95261.66;;;-0.76;99.18
16451;BME280;12243;42.708;23.310;2023-01-30T02:08:35;95263.00;;;-0.66;99.13
16451;BME280;12243;42.708;23.310;2023-01-30T02:11:08;95256.47;;;-0.75;98.67
16451;BME280;12243;42.708;23.310;2023-01-30T02:13:36;95257.53;;;-0.80;98.94
16451;BME280;12243;42.708;23.310;2023-01-30T02:16:05;95260.13;;;-0.82;99.58
16451;BME280;12243;42.708;23.310;2023-01-30T02:18:34;95261.88;;;-0.82;99.53
16451;BME280;12243;42.708;23.310;2023-01-30T02:24:18;95262.31;;;-0.71;100.00
16451;BME280;12243;42.708;23.310;2023-01-30T02:30:20;95258.09;;;-0.72;99.27
16451;BME280;12243;42.708;23.310;2023-01-30T02:33:00;95254.66;;;-0.71;99.00
16451;BME280;12243;42.708;23.310;2023-01-30T02:35:39;95255.97;;;-0.61;98.79
16451;BME280;12243;42.708;23.310;2023-01-30T02:38:26;95247.75;;;-0.69;98.05
16451;BME280;12243;42.708;23.310;2023-01-30T02:41:01;95252.53;;;-0.60;97.72
16451;BME280;12243;42.708;23.310;2023-01-30T02:43:39;95251.66;;;-0.59;97.40
16451;BME280;12243;42.708;23.310;2023-01-30T02:46:11;95245.66;;;-0.58;97.28
16451;BME280;12243;42.708;23.310;2023-01-30T02:48:45;95236.53;;;-0.65;97.40
16451;BME280;12243;42.708;23.310;2023-01-30T02:51:17;95238.59;;;-0.51;97.60
16451;BME280;12243;42.708;23.310;2023-01-30T02:53:46;95241.97;;;-0.51;97.11
16451;BME280;12243;42.708;23.310;2023-01-30T02:56:14;95242.91;;;-0.53;97.45
16451;BME280;12243;42.708;23.310;2023-01-30T02:58:45;95249.03;;;-0.57;97.06
16451;BME280;12243;42.708;23.310;2023-01-30T03:01:47;95246.25;;;-0.51;97.10
16451;BME280;12243;42.708;23.310;2023-01-30T03:04:39;95246.97;;;-0.47;96.79
16451;BME280;12243;42.708;23.310;2023-01-30T03:07:26;95243.63;;;-0.50;96.99
16451;BME280;12243;42.708;23.310;2023-01-30T03:10:01;95252.00;;;-0.44;96.42
16451;BME280;12243;42.708;23.310;2023-01-30T03:12:40;95236.63;;;-0.44;96.09
16451;BME280;12243;42.708;23.310;2023-01-30T03:15:16;95233.19;;;-0.43;96.17
16451;BME280;12243;42.708;23.310;2023-01-30T03:17:47;95236.78;;;-0.49;95.67
16451;BME280;12243;42.708;23.310;2023-01-30T03:20:18;95230.19;;;-0.55;95.87
16451;BME280;12243;42.708;23.310;2023-01-30T03:22:46;95230.19;;;-0.55;96.64
16451;BME280;12243;42.708;23.310;2023-01-30T03:25:18;95216.63;;;-0.57;97.04
16451;BME280;12243;42.708;23.310;2023-01-30T03:27:47;95211.50;;;-0.57;97.10
16451;BME280;12243;42.708;23.310;2023-01-30T03:30:16;95204.13;;;-0.64;96.60
16451;BME280;12243;42.708;23.310;2023-01-30T03:32:43;95210.06;;;-0.64;97.63
16451;BME280;12243;42.708;23.310;2023-01-30T03:35:11;95203.09;;;-0.60;97.03
16451;BME280;12243;42.708;23.310;2023-01-30T03:37:41;95199.94;;;-0.67;98.26
16451;BME280;12243;42.708;23.310;2023-01-30T03:40:09;95204.03;;;-0.63;98.13
16451;BME280;12243;42.708;23.310;2023-01-30T03:42:36;95209.72;;;-0.55;96.89
16451;BME280;12243;42.708;23.310;2023-01-30T03:45:04;95202.16;;;-0.58;96.42
16451;BME280;12243;42.708;23.310;2023-01-30T03:47:31;95199.78;;;-0.62;96.54
16451;BME280;12243;42.708;23.310;2023-01-30T03:49:59;95197.34;;;-0.65;96.84
16451;BME280;12243;42.708;23.310;2023-01-30T03:52:26;95200.19;;;-0.73;96.91
16451;BME280;12243;42.708;23.310;2023-01-30T03:54:54;95186.81;;;-0.81;97.32
16451;BME280;12243;42.708;23.310;2023-01-30T03:57:21;95190.53;;;-0.66;97.08
16451;BME280;12243;42.708;23.310;2023-01-30T03:59:48;95194.00;;;-0.67;96.34
16451;BME280;12243;42.708;23.310;2023-01-30T04:02:15;95200.19;;;-0.73;96.61
16451;BME280;12243;42.708;23.310;2023-01-30T04:04:46;95199.28;;;-0.72;97.17
16451;BME280;12243;42.708;23.310;2023-01-30T04:07:13;95190.50;;;-0.65;97.05
16451;BME280;12243;42.708;23.310;2023-01-30T04:09:41;95191.50;;;-0.69;96.13
16451;BME280;12243;42.708;23.310;2023-01-30T04:12:09;95192.72;;;-0.79;96.70
16451;BME280;12243;42.708;23.310;2023-01-30T04:14:44;95195.06;;;-0.73;97.33
16451;BME280;12243;42.708;23.310;2023-01-30T04:17:30;95190.69;;;-0.69;97.68
16451;BME280;12243;42.708;23.310;2023-01-30T04:20:15;95196.00;;;-0.76;97.19
16451;BME280;12243;42.708;23.310;2023-01-30T04:22:48;95190.28;;;-0.82;97.76
16451;BME280;12243;42.708;23.310;2023-01-30T04:25:16;95186.28;;;-0.89;97.25
16451;BME280;12243;42.708;23.310;2023-01-30T04:27:44;95193.16;;;-0.91;98.66
16451;BME280;12243;42.708;23.310;2023-01-30T04:30:15;95197.13;;;-0.83;98.37
16451;BME280;12243;42.708;23.310;2023-01-30T04:32:44;95194.47;;;-0.80;98.21
16451;BME280;12243;42.708;23.310;2023-01-30T04:35:11;95196.63;;;-0.69;98.34
16451;BME280;12243;42.708;23.310;2023-01-30T04:37:39;95194.94;;;-0.70;97.99
16451;BME280;12243;42.708;23.310;2023-01-30T04:40:10;95186.38;;;-0.69;98.24
16451;BME280;12243;42.708;23.310;2023-01-30T04:42:37;95184.94;;;-0.76;97.89
16451;BME280;12243;42.708;23.310;2023-01-30T04:45:28;95187.91;;;-0.87;98.22
16451;BME280;12243;42.708;23.310;2023-01-30T04:47:55;95186.16;;;-0.86;98.77
16451;BME280;12243;42.708;23.310;2023-01-30T04:50:23;95187.03;;;-0.87;98.79
16451;BME280;12243;42.708;23.310;2023-01-30T04:52:50;95182.78;;;-0.87;99.09
16451;BME280;12243;42.708;23.310;2023-01-30T04:55:17;95171.59;;;-0.84;98.70
16451;BME280;12243;42.708;23.310;2023-01-30T04:57:44;95170.84;;;-0.86;98.84
16451;BME280;12243;42.708;23.310;2023-01-30T05:00:12;95163.88;;;-0.83;99.26
16451;BME280;12243;42.708;23.310;2023-01-30T05:02:48;95173.19;;;-0.80;99.06
16451;BME280;12243;42.708;23.310;2023-01-30T05:05:17;95170.16;;;-0.91;98.69
16451;BME280;12243;42.708;23.310;2023-01-30T05:07:44;95161.94;;;-1.00;99.36
16451;BME280;12243;42.708;23.310;2023-01-30T05:10:11;95167.84;;;-0.98;99.94
16451;BME280;12243;42.708;23.310;2023-01-30T05:12:38;95166.00;;;-0.94;99.98
16451;BME280;12243;42.708;23.310;2023-01-30T05:15:06;95161.53;;;-0.89;99.60
16451;BME280;12243;42.708;23.310;2023-01-30T05:17:33;95168.06;;;-0.80;100.00
16451;BME280;12243;42.708;23.310;2023-01-30T05:20:03;95174.03;;;-0.81;100.00
16451;BME280;12243;42.708;23.310;2023-01-30T05:22:30;95168.81;;;-0.78;100.00
16451;BME280;12243;42.708;23.310;2023-01-30T05:24:57;95175.47;;;-0.74;100.00
16451;BME280;12243;42.708;23.310;2023-01-30T05:27:24;95173.81;;;-0.75;100.00
16451;BME280;12243;42.708;23.310;2023-01-30T05:29:51;95178.09;;;-0.76;100.00
16451;BME280;12243;42.708;23.310;2023-01-30T05:32:18;95181.00;;;-0.85;100.00
16451;BME280;12243;42.708;23.310;2023-01-30T05:34:47;95176.38;;;-0.75;100.00
16451;BME280;12243;42.708;23.310;2023-01-30T05:37:15;95178.88;;;-0.74;100.00
16451;BME280;12243;42.708;23.310;2023-01-30T05:39:42;95181.38;;;-0.72;100.00
16451;BME280;12243;42.708;23.310;2023-01-30T05:42:09;95179.47;;;-0.67;100.00
16451;BME280;12243;42.708;23.310;2023-01-30T05:44:36;95183.94;;;-0.72;100.00
16451;BME280;12243;42.708;23.310;2023-01-30T05:47:03;95193.06;;;-0.65;100.00
16451;BME280;12243;42.708;23.310;2023-01-30T05:49:30;95180.28;;;-0.65;100.00
16451;BME280;12243;42.708;23.310;2023-01-30T05:51:56;95175.34;;;-0.69;100.00
16451;BME280;12243;42.708;23.310;2023-01-30T05:54:25;95185.56;;;-0.69;100.00
16451;BME280;12243;42.708;23.310;2023-01-30T05:56:52;95185.59;;;-0.71;100.00
16451;BME280;12243;42.708;23.310;2023-01-30T05:59:19;95184.84;;;-0.73;100.00
16451;BME280;12243;42.708;23.310;2023-01-30T06:01:46;95185.28;;;-0.62;100.00
16451;BME280;12243;42.708;23.310;2023-01-30T06:04:13;95187.94;;;-0.65;100.00
16451;BME280;12243;42.708;23.310;2023-01-30T06:06:40;95187.94;;;-0.65;100.00
16451;BME280;12243;42.708;23.310;2023-01-30T06:09:09;95190.00;;;-0.75;100.00
16451;BME280;12243;42.708;23.310;2023-01-30T06:11:37;95190.59;;;-0.68;100.00
16451;BME280;12243;42.708;23.310;2023-01-30T06:14:04;95188.28;;;-0.74;100.00
16451;BME280;12243;42.708;23.310;2023-01-30T06:16:31;95183.22;;;-0.76;100.00
16451;BME280;12243;42.708;23.310;2023-01-30T06:18:58;95188.50;;;-0.80;100.00
16451;BME280;12243;42.708;23.310;2023-01-30T06:21:25;95180.72;;;-0.77;100.00
16451;BME280;12243;42.708;23.310;2023-01-30T06:23:52;95179.84;;;-0.76;100.00
16451;BME280;12243;42.708;23.310;2023-01-30T06:26:19;95187.53;;;-0.78;100.00
16451;BME280;12243;42.708;23.310;2023-01-30T06:28:47;95183.41;;;-0.80;100.00
16451;BME280;12243;42.708;23.310;2023-01-30T06:31:14;95174.72;;;-0.76;100.00
16451;BME280;12243;42.708;23.310;2023-01-30T06:33:42;95180.06;;;-0.82;100.00
16451;BME280;12243;42.708;23.310;2023-01-30T06:36:09;95176.38;;;-0.75;100.00
16451;BME280;12243;42.708;23.310;2023-01-30T06:38:36;95185.78;;;-0.76;100.00
16451;BME280;12243;42.708;23.310;2023-01-30T06:41:04;95179.78;;;-0.75;100.00
16451;BME280;12243;42.708;23.310;2023-01-30T06:43:30;95174.25;;;-0.64;100.00
16451;BME280;12243;42.708;23.310;2023-01-30T06:45:59;95182.81;;;-0.65;100.00
16451;BME280;12243;42.708;23.310;2023-01-30T06:48:26;95179.59;;;-0.70;100.00
16451;BME280;12243;42.708;23.310;2023-01-30T06:50:53;95181.38;;;-0.72;100.00
16451;BME280;12243;42.708;23.310;2023-01-30T06:53:19;95183.03;;;-0.71;100.00
16451;BME280;12243;42.708;23.310;2023-01-30T06:55:49;95192.84;;;-0.59;100.00
16451;BME280;12243;42.708;23.310;2023-01-30T06:58:16;95191.41;;;-0.66;99.93
16451;BME280;12243;42.708;23.310;2023-01-30T07:00:43;95197.38;;;-0.67;100.00
16451;BME280;12243;42.708;23.310;2023-01-30T07:03:12;95191.41;;;-0.66;100.00
16451;BME280;12243;42.708;23.310;2023-01-30T07:05:40;95192.22;;;-0.65;100.00
16451;BME280;12243;42.708;23.310;2023-01-30T07:08:10;95192.44;;;-0.72;100.00
16451;BME280;12243;42.708;23.310;2023-01-30T07:10:37;95198.94;;;-0.63;100.00
16451;BME280;12243;42.708;23.310;2023-01-30T07:13:04;95194.59;;;-0.61;99.85
16451;BME280;12243;42.708;23.310;2023-01-30T07:15:32;95201.47;;;-0.63;99.85
16451;BME280;12243;42.708;23.310;2023-01-30T07:17:59;95193.28;;;-0.71;99.29
16451;BME280;12243;42.708;23.310;2023-01-30T07:20:27;95201.84;;;-0.72;100.00
16451;BME280;12243;42.708;23.310;2023-01-30T07:22:55;95197.06;;;-0.58;100.00
16451;BME280;12243;42.708;23.310;2023-01-30T07:25:24;95198.91;;;-0.39;99.92
16451;BME280;12243;42.708;23.310;2023-01-30T07:27:51;95197.25;;;-0.40;98.48
16451;BME280;12243;42.708;23.310;2023-01-30T07:30:19;95198.91;;;-0.39;98.30
16451;BME280;12243;42.708;23.310;2023-01-30T07:32:48;95210.22;;;-0.45;97.86
16451;BME280;12243;42.708;23.310;2023-01-30T07:35:15;95213.75;;;-0.49;98.25
16451;BME280;12243;42.708;23.310;2023-01-30T07:37:45;95209.84;;;-0.58;97.08
16451;BME280;12243;42.708;23.310;2023-01-30T07:40:12;95217.50;;;-0.58;97.72
16451;BME280;12243;42.708;23.310;2023-01-30T07:42:40;95221.00;;;-0.60;97.56
16451;BME280;12243;42.708;23.310;2023-01-30T07:45:07;95218.44;;;-0.60;98.33
16451;BME280;12243;42.708;23.310;2023-01-30T07:47:35;95214.84;;;-0.55;98.67
16451;BME280;12243;42.708;23.310;2023-01-30T07:50:02;95205.34;;;-0.51;98.94
16451;BME280;12243;42.708;23.310;2023-01-30T07:52:29;95210.03;;;-0.40;98.56
16451;BME280;12243;42.708;23.310;2023-01-30T07:54:57;95204.84;;;-0.39;98.87
16451;BME280;12243;42.708;23.310;2023-01-30T07:57:24;95201.78;;;-0.25;98.81
16451;BME280;12243;42.708;23.310;2023-01-30T07:59:51;95194.66;;;-0.17;98.14
16451;BME280;12243;42.708;23.310;2023-01-30T08:02:18;95189.47;;;-0.15;97.88
16451;BME280;12243;42.708;23.310;2023-01-30T08:04:45;95192.09;;;-0.17;97.28
16451;BME280;12243;42.708;23.310;2023-01-30T08:07:12;95181.06;;;-0.19;97.39
16451;BME280;12243;42.708;23.310;2023-01-30T08:09:39;95183.72;;;-0.20;97.95
16451;BME280;12243;42.708;23.310;2023-01-30T08:12:07;95185.16;;;-0.15;98.19
16451;BME280;12243;42.708;23.310;2023-01-30T08:14:34;95189.88;;;-0.04;97.55
16451;BME280;12243;42.708;23.310;2023-01-30T08:17:01;95184.16;;;-0.11;96.73
16451;BME280;12243;42.708;23.310;2023-01-30T08:19:28;95182.13;;;-0.25;97.80
16451;BME280;12243;42.708;23.310;2023-01-30T08:21:55;95173.22;;;-0.14;97.22
16451;BME280;12243;42.708;23.310;2023-01-30T08:24:22;95178.31;;;-0.14;97.39
16451;BME280;12243;42.708;23.310;2023-01-30T08:26:49;95175.00;;;-0.16;96.53
16451;BME280;12243;42.708;23.310;2023-01-30T08:29:17;95179.41;;;-0.20;96.27
16451;BME280;12243;42.708;23.310;2023-01-30T08:31:44;95170.84;;;-0.19;96.35
16451;BME280;12243;42.708;23.310;2023-01-30T08:34:11;95170.00;;;-0.19;96.64
16451;BME280;12243;42.708;23.310;2023-01-30T08:36:38;95174.19;;;-0.17;96.91
16451;BME280;12243;42.708;23.310;2023-01-30T08:39:04;95159.34;;;-0.09;97.04
16451;BME280;12243;42.708;23.310;2023-01-30T08:41:31;95163.56;;;-0.08;95.99
16451;BME280;12243;42.708;23.310;2023-01-30T08:43:58;95161.78;;;-0.06;96.47
16451;BME280;12243;42.708;23.310;2023-01-30T08:46:26;95158.91;;;0.02;96.74
16451;BME280;12243;42.708;23.310;2023-01-30T08:48:53;95158.47;;;0.13;95.34
16451;BME280;12243;42.708;23.310;2023-01-30T08:51:20;95157.66;;;0.12;95.55
16451;BME280;12243;42.708;23.310;2023-01-30T08:53:47;95155.56;;;0.22;93.26
16451;BME280;12243;42.708;23.310;2023-01-30T08:56:16;95151.59;;;0.15;93.45
16451;BME280;12243;42.708;23.310;2023-01-30T08:58:43;95146.47;;;0.15;93.46
16451;BME280;12243;42.708;23.310;2023-01-30T09:01:11;95152.97;;;0.02;93.41
16451;BME280;12243;42.708;23.310;2023-01-30T09:03:40;95150.16;;;0.08;94.02
16451;BME280;12243;42.708;23.310;2023-01-30T09:06:07;95145.88;;;0.08;93.00
16451;BME280;12243;42.708;23.310;2023-01-30T09:08:34;95141.34;;;0.15;92.50
16451;BME280;12243;42.708;23.310;2023-01-30T09:11:03;95141.94;;;-0.01;93.22
16451;BME280;12243;42.708;23.310;2023-01-30T09:13:32;95141.19;;;-0.03;93.99
16451;BME280;12243;42.708;23.310;2023-01-30T09:16:00;95136.06;;;-0.03;94.31
16451;BME280;12243;42.708;23.310;2023-01-30T09:18:28;95134.59;;;0.12;94.41
16451;BME280;12243;42.708;23.310;2023-01-30T09:21:02;95134.50;;;0.15;94.46
16451;BME280;12243;42.708;23.310;2023-01-30T09:23:29;95126.47;;;0.23;93.60
16451;BME280;12243;42.708;23.310;2023-01-30T09:25:56;95138.66;;;0.18;92.90
16451;BME280;12243;42.708;23.310;2023-01-30T09:28:25;95129.03;;;0.03;93.25
16451;BME280;12243;42.708;23.310;2023-01-30T09:30:52;95139.78;;;-0.10;94.47
16451;BME280;12243;42.708;23.310;2023-01-30T09:33:19;95136.44;;;-0.12;94.30
16451;BME280;12243;42.708;23.310;2023-01-30T09:35:46;95135.41;;;-0.08;94.36
16451;BME280;12243;42.708;23.310;2023-01-30T09:38:15;95125.94;;;-0.06;93.78
16451;BME280;12243;42.708;23.310;2023-01-30T09:40:46;95126.50;;;-0.19;93.93
16451;BME280;12243;42.708;23.310;2023-01-30T09:43:28;95123.00;;;-0.17;94.56
16451;BME280;12243;42.708;23.310;2023-01-30T09:46:10;95105.84;;;-0.15;94.96
16451;BME280;12243;42.708;23.310;2023-01-30T09:48:42;95114.19;;;-0.10;94.35
16451;BME280;12243;42.708;23.310;2023-01-30T09:51:32;95110.47;;;-0.03;94.46
16451;BME280;12243;42.708;23.310;2023-01-30T09:54:15;95119.28;;;-0.10;95.12
16451;BME280;12243;42.708;23.310;2023-01-30T09:56:42;95115.00;;;-0.09;95.24
16451;BME280;12243;42.708;23.310;2023-01-30T09:59:16;95103.19;;;0.09;95.89
16451;BME280;12243;42.708;23.310;2023-01-30T10:01:50;95097.94;;;0.12;94.18
16451;BME280;12243;42.708;23.310;2023-01-30T10:04:24;95098.06;;;0.09;93.95
16451;BME280;12243;42.708;23.310;2023-01-30T10:07:03;95092.94;;;0.09;94.15
16451;BME280;12243;42.708;23.310;2023-01-30T10:09:39;95090.13;;;-0.06;94.35
16451;BME280;12243;42.708;23.310;2023-01-30T10:12:24;95083.63;;;-0.14;94.54
16451;BME280;12243;42.708;23.310;2023-01-30T10:15:02;95072.81;;;-0.01;93.94
16451;BME280;12243;42.708;23.310;2023-01-30T10:17:41;95074.75;;;-0.06;92.77
16451;BME280;12243;42.708;23.310;2023-01-30T10:20:29;95066.41;;;-0.11;91.77
16451;BME280;12243;42.708;23.310;2023-01-30T10:23:08;95061.59;;;0.04;95.17
16451;BME280;12243;42.708;23.310;2023-01-30T10:25:42;95057.88;;;0.11;92.00
16451;BME280;12243;42.708;23.310;2023-01-30T10:28:15;95054.19;;;0.16;90.28
16451;BME280;12243;42.708;23.310;2023-01-30T10:30:44;95046.94;;;0.07;90.36
16451;BME280;12243;42.708;23.310;2023-01-30T10:33:19;95055.56;;;0.05;89.93
16451;BME280;12243;42.708;23.310;2023-01-30T10:35:56;95047.34;;;-0.04;89.61
16451;BME280;12243;42.708;23.310;2023-01-30T10:38:28;95036.25;;;-0.03;90.03
16451;BME280;12243;42.708;23.310;2023-01-30T10:41:04;95033.94;;;-0.09;89.08
16451;BME280;12243;42.708;23.310;2023-01-30T10:43:36;95022.34;;;-0.17;90.07
16451;BME280;12243;42.708;23.310;2023-01-30T10:46:22;95023.19;;;-0.17;89.62
16451;BME280;12243;42.708;23.310;2023-01-30T10:48:56;95014.84;;;-0.02;89.63
16451;BME280;12243;42.708;23.310;2023-01-30T10:51:34;95002.84;;;0.01;90.34
16451;BME280;12243;42.708;23.310;2023-01-30T10:54:09;95002.84;;;0.01;89.07
16451;BME280;12243;42.708;23.310;2023-01-30T10:56:46;94997.00;;;-0.03;89.25
16451;BME280;12243;42.708;23.310;2023-01-30T10:59:22;94989.81;;;0.05;88.73
16451;BME280;12243;42.708;23.310;2023-01-30T11:01:58;94987.47;;;0.01;88.76
16451;BME280;12243;42.708;23.310;2023-01-30T11:04:30;94982.47;;;-0.03;89.12
16451;BME280;12243;42.708;23.310;2023-01-30T11:07:00;94973.91;;;-0.02;89.62
16451;BME280;12243;42.708;23.310;2023-01-30T11:09:41;94973.84;;;0.00;90.22
16451;BME280;12243;42.708;23.310;2023-01-30T11:12:10;94961.19;;;0.16;90.09
16451;BME280;12243;42.708;23.310;2023-01-30T11:14:55;94950.94;;;0.16;89.76
16451;BME280;12243;42.708;23.310;2023-01-30T11:17:29;94952.75;;;0.14;88.91
16451;BME280;12243;42.708;23.310;2023-01-30T11:20:02;94949.06;;;0.01;88.67
16451;BME280;12243;42.708;23.310;2023-01-30T11:22:31;94937.84;;;0.03;88.81
16451;BME280;12243;42.708;23.310;2023-01-30T11:25:03;94939.75;;;0.18;88.50
16451;BME280;12243;42.708;23.310;2023-01-30T11:27:34;94930.00;;;0.08;88.52
16451;BME280;12243;42.708;23.310;2023-01-30T11:30:08;94921.75;;;0.01;89.33
16451;BME280;12243;42.708;23.310;2023-01-30T11:32:40;94916.97;;;0.31;94.95
16451;BME280;12243;42.708;23.310;2023-01-30T11:35:22;94922.25;;;0.28;88.32
16451;BME280;12243;42.708;23.310;2023-01-30T11:37:52;94915.19;;;0.14;87.78
16451;BME280;12243;42.708;23.310;2023-01-30T11:40:24;94910.53;;;0.04;88.28
16451;BME280;12243;42.708;23.310;2023-01-30T11:43:03;94912.13;;;0.06;88.57
16451;BME280;12243;42.708;23.310;2023-01-30T11:45:34;94900.56;;;-0.03;88.50
16451;BME280;12243;42.708;23.310;2023-01-30T11:48:05;94889.63;;;0.13;88.93
16451;BME280;12243;42.708;23.310;2023-01-30T11:50:39;94882.97;;;0.28;87.94
16451;BME280;12243;42.708;23.310;2023-01-30T11:53:19;94873.03;;;0.21;87.36
16451;BME280;12243;42.708;23.310;2023-01-30T11:55:49;94877.03;;;0.27;88.33
16451;BME280;12243;42.708;23.310;2023-01-30T11:58:17;94876.22;;;0.27;88.29
16451;BME280;12243;42.708;23.310;2023-01-30T12:00:46;94862.13;;;0.18;88.21
16451;BME280;12243;42.708;23.310;2023-01-30T12:03:17;94856.84;;;0.21;87.73
16451;BME280;12243;42.708;23.310;2023-01-30T12:05:46;94850.06;;;0.20;87.96
16451;BME280;12243;42.708;23.310;2023-01-30T12:08:22;94853.25;;;0.25;87.81
16451;BME280;12243;42.708;23.310;2023-01-30T12:10:52;94846.44;;;0.24;88.09
16451;BME280;12243;42.708;23.310;2023-01-30T12:13:25;94846.59;;;0.21;87.69
16451;BME280;12243;42.708;23.310;2023-01-30T12:16:02;94842.69;;;0.31;87.38
16451;BME280;12243;42.708;23.310;2023-01-30T12:18:36;94833.91;;;0.37;88.08
16451;BME280;12243;42.708;23.310;2023-01-30T12:21:10;94826.22;;;0.37;86.41
16451;BME280;12243;42.708;23.310;2023-01-30T12:23:44;94826.66;;;0.28;86.60
16451;BME280;12243;42.708;23.310;2023-01-30T12:26:14;94829.44;;;0.23;87.22
16451;BME280;12243;42.708;23.310;2023-01-30T12:28:48;94829.16;;;0.29;88.04
16451;BME280;12243;42.708;23.310;2023-01-30T12:31:21;94818.63;;;0.16;86.61
16451;BME280;12243;42.708;23.310;2023-01-30T12:33:50;94815.72;;;0.24;86.78
16451;BME280;12243;42.708;23.310;2023-01-30T12:36:25;94802.25;;;0.38;86.68
16451;BME280;12243;42.708;23.310;2023-01-30T12:39:05;94802.06;;;0.42;86.90
16451;BME280;12243;42.708;23.310;2023-01-30T12:41:43;94811.25;;;0.46;86.58
16451;BME280;12243;42.708;23.310;2023-01-30T12:44:33;94791.72;;;0.44;85.81
16451;BME280;12243;42.708;23.310;2023-01-30T12:47:20;94786.22;;;0.34;86.31
16451;BME280;12243;42.708;23.310;2023-01-30T12:50:04;94785.38;;;0.34;87.05
16451;BME280;12243;42.708;23.310;2023-01-30T12:52:54;94781.09;;;0.34;87.27
16451;BME280;12243;42.708;23.310;2023-01-30T12:55:32;94776.06;;;0.33;87.68
16451;BME280;12243;42.708;23.310;2023-01-30T12:58:05;94782.31;;;0.44;86.97
16451;BME280;12243;42.708;23.310;2023-01-30T13:00:48;94782.63;;;0.56;86.57
16451;BME280;12243;42.708;23.310;2023-01-30T13:03:29;94777.00;;;0.66;85.92
16451;BME280;12243;42.708;23.310;2023-01-30T13:06:09;94772.22;;;0.76;85.92
16451;BME280;12243;42.708;23.310;2023-01-30T13:08:48;94772.56;;;0.70;85.00
16451;BME280;12243;42.708;23.310;2023-01-30T13:11:36;94790.19;;;0.76;85.72
16451;BME280;12243;42.708;23.310;2023-01-30T13:14:14;94777.16;;;0.81;86.18
16451;BME280;12243;42.708;23.310;2023-01-30T13:16:53;94770.44;;;0.78;86.04